Bushland, Texas
Current Conditions -  °F | °C
As of 5:53 AM on Monday 24 Nov 2014 (Local Time) from KAMA Reporting Station
Broken Clouds Broken Clouds  
Wind Chill: 30°   Ceiling: 10000
Heat Index: 35°   Visibility: 10mi
Dew Point: 23°   Wind: 6mph
Humidity: 61%   Direction: 300°WNW
Pressure: 29.97"   Gusts: NA
Location:  35.19°N, 102.07°W
Report Text: KAMA 241153Z 30005KT 10SM BKN100 BKN120 02/M05 A2997 RMK AO2 SLP153 70008 T00171050 10028 21022 58001
Loading
Personal Weather Stations






























Interactive Weather Map New forecast layout! Learn more

10-Day Weather Forecast

Advertisements
Track Severe Weather on mobile